Aviation Digital Data Service (ADDS)

Output produced by METARs form (2204 UTC 25 October 2014)
found at http://aviationweather.gov/adds/metars/
 
KGSP 251731Z 2518/2618 25004KT P6SM SKC 
     FM260700 30003KT P6SM SKC 
     FM261400 32005KT P6SM SKC